sensor_id;sensor_type;location;lat;lon;timestamp;P1;durP1;ratioP1;P2;durP2;ratioP2
21170;SDS011;10743;52.160;20.910;2023-06-14T00:00:32;215.60;;;61.42;;
21170;SDS011;10743;52.160;20.910;2023-06-14T00:03:01;289.30;;;154.73;;
21170;SDS011;10743;52.160;20.910;2023-06-14T00:05:30;270.73;;;127.53;;
21170;SDS011;10743;52.160;20.910;2023-06-14T00:07:59;255.82;;;102.32;;
21170;SDS011;10743;52.160;20.910;2023-06-14T00:10:26;224.82;;;73.15;;
21170;SDS011;10743;52.160;20.910;2023-06-14T00:12:57;266.17;;;130.88;;
21170;SDS011;10743;52.160;20.910;2023-06-14T00:15:26;262.73;;;132.15;;
21170;SDS011;10743;52.160;20.910;2023-06-14T00:17:54;277.88;;;137.77;;
21170;SDS011;10743;52.160;20.910;2023-06-14T00:20:22;269.95;;;123.80;;
21170;SDS011;10743;52.160;20.910;2023-06-14T00:22:50;274.95;;;123.20;;
21170;SDS011;10743;52.160;20.910;2023-06-14T00:25:18;262.58;;;119.03;;
21170;SDS011;10743;52.160;20.910;2023-06-14T00:27:55;229.70;;;76.82;;
21170;SDS011;10743;52.160;20.910;2023-06-14T00:30:23;258.85;;;108.13;;
21170;SDS011;10743;52.160;20.910;2023-06-14T00:32:51;264.98;;;121.35;;
21170;SDS011;10743;52.160;20.910;2023-06-14T00:35:18;259.95;;;110.90;;
21170;SDS011;10743;52.160;20.910;2023-06-14T00:37:45;276.35;;;137.20;;
21170;SDS011;10743;52.160;20.910;2023-06-14T00:40:12;272.95;;;129.48;;
21170;SDS011;10743;52.160;20.910;2023-06-14T00:42:40;262.55;;;123.40;;
21170;SDS011;10743;52.160;20.910;2023-06-14T00:45:09;274.40;;;133.15;;
21170;SDS011;10743;52.160;20.910;2023-06-14T00:47:36;291.05;;;151.35;;
21170;SDS011;10743;52.160;20.910;2023-06-14T00:50:08;288.90;;;150.60;;
21170;SDS011;10743;52.160;20.910;2023-06-14T00:52:36;248.52;;;99.05;;
21170;SDS011;10743;52.160;20.910;2023-06-14T00:55:03;260.00;;;116.70;;
21170;SDS011;10743;52.160;20.910;2023-06-14T00:57:31;271.50;;;122.47;;
21170;SDS011;10743;52.160;20.910;2023-06-14T00:59:58;335.25;;;190.48;;
21170;SDS011;10743;52.160;20.910;2023-06-14T01:02:25;305.58;;;179.23;;
21170;SDS011;10743;52.160;20.910;2023-06-14T01:04:52;241.50;;;92.05;;
21170;SDS011;10743;52.160;20.910;2023-06-14T01:10:08;261.02;;;119.05;;
21170;SDS011;10743;52.160;20.910;2023-06-14T01:13:27;283.90;;;142.88;;
21170;SDS011;10743;52.160;20.910;2023-06-14T01:16:02;278.80;;;137.20;;
21170;SDS011;10743;52.160;20.910;2023-06-14T01:18:30;339.38;;;209.48;;
21170;SDS011;10743;52.160;20.910;2023-06-14T01:21:00;293.17;;;178.88;;
21170;SDS011;10743;52.160;20.910;2023-06-14T01:23:32;317.83;;;208.48;;
21170;SDS011;10743;52.160;20.910;2023-06-14T01:26:00;214.65;;;59.53;;
21170;SDS011;10743;52.160;20.910;2023-06-14T01:28:30;343.75;;;229.98;;
21170;SDS011;10743;52.160;20.910;2023-06-14T01:31:00;295.88;;;163.68;;
21170;SDS011;10743;52.160;20.910;2023-06-14T01:33:32;286.13;;;157.45;;
21170;SDS011;10743;52.160;20.910;2023-06-14T01:36:01;299.17;;;177.10;;
21170;SDS011;10743;52.160;20.910;2023-06-14T01:38:30;284.25;;;150.38;;
21170;SDS011;10743;52.160;20.910;2023-06-14T01:40:59;310.60;;;197.48;;
21170;SDS011;10743;52.160;20.910;2023-06-14T01:43:28;229.27;;;87.40;;
21170;SDS011;10743;52.160;20.910;2023-06-14T01:45:57;248.48;;;104.53;;
21170;SDS011;10743;52.160;20.910;2023-06-14T01:48:26;226.43;;;75.20;;
21170;SDS011;10743;52.160;20.910;2023-06-14T01:50:53;219.93;;;66.50;;
21170;SDS011;10743;52.160;20.910;2023-06-14T01:53:21;214.27;;;59.45;;
21170;SDS011;10743;52.160;20.910;2023-06-14T01:55:48;244.07;;;79.93;;
21170;SDS011;10743;52.160;20.910;2023-06-14T01:58:15;239.85;;;98.35;;
21170;SDS011;10743;52.160;20.910;2023-06-14T02:00:43;228.55;;;82.40;;
21170;SDS011;10743;52.160;20.910;2023-06-14T02:03:11;240.55;;;115.07;;
21170;SDS011;10743;52.160;20.910;2023-06-14T02:05:39;261.27;;;142.50;;
21170;SDS011;10743;52.160;20.910;2023-06-14T02:08:06;241.85;;;82.78;;
21170;SDS011;10743;52.160;20.910;2023-06-14T02:10:34;223.85;;;65.68;;
21170;SDS011;10743;52.160;20.910;2023-06-14T02:13:02;268.92;;;130.60;;
21170;SDS011;10743;52.160;20.910;2023-06-14T02:15:29;223.30;;;71.82;;
21170;SDS011;10743;52.160;20.910;2023-06-14T02:18:03;225.32;;;63.63;;
21170;SDS011;10743;52.160;20.910;2023-06-14T02:20:32;302.70;;;241.52;;
21170;SDS011;10743;52.160;20.910;2023-06-14T02:23:00;227.85;;;76.10;;
21170;SDS011;10743;52.160;20.910;2023-06-14T02:25:30;220.20;;;62.38;;
21170;SDS011;10743;52.160;20.910;2023-06-14T02:27:57;224.75;;;71.40;;
21170;SDS011;10743;52.160;20.910;2023-06-14T02:30:24;282.40;;;135.95;;
21170;SDS011;10743;52.160;20.910;2023-06-14T02:32:55;267.50;;;136.57;;
21170;SDS011;10743;52.160;20.910;2023-06-14T02:35:23;238.35;;;96.30;;
21170;SDS011;10743;52.160;20.910;2023-06-14T02:37:54;241.10;;;96.93;;
21170;SDS011;10743;52.160;20.910;2023-06-14T02:40:22;217.55;;;66.75;;
21170;SDS011;10743;52.160;20.910;2023-06-14T02:42:49;258.70;;;108.32;;
21170;SDS011;10743;52.160;20.910;2023-06-14T02:45:17;214.30;;;62.53;;
21170;SDS011;10743;52.160;20.910;2023-06-14T02:47:44;236.95;;;81.75;;
21170;SDS011;10743;52.160;20.910;2023-06-14T02:50:12;240.63;;;91.38;;
21170;SDS011;10743;52.160;20.910;2023-06-14T02:52:40;220.77;;;63.03;;
21170;SDS011;10743;52.160;20.910;2023-06-14T02:55:08;223.50;;;64.15;;
21170;SDS011;10743;52.160;20.910;2023-06-14T02:57:36;274.17;;;150.85;;
21170;SDS011;10743;52.160;20.910;2023-06-14T03:00:05;227.23;;;80.13;;
21170;SDS011;10743;52.160;20.910;2023-06-14T03:02:37;230.77;;;84.25;;
21170;SDS011;10743;52.160;20.910;2023-06-14T03:05:04;235.95;;;90.20;;
21170;SDS011;10743;52.160;20.910;2023-06-14T03:07:34;285.85;;;170.90;;
21170;SDS011;10743;52.160;20.910;2023-06-14T03:10:03;331.70;;;234.80;;
21170;SDS011;10743;52.160;20.910;2023-06-14T03:12:30;311.63;;;220.82;;
21170;SDS011;10743;52.160;20.910;2023-06-14T03:14:57;268.35;;;143.27;;
21170;SDS011;10743;52.160;20.910;2023-06-14T03:17:31;262.23;;;133.15;;
21170;SDS011;10743;52.160;20.910;2023-06-14T03:20:02;307.83;;;243.65;;
21170;SDS011;10743;52.160;20.910;2023-06-14T03:22:30;263.83;;;125.75;;
21170;SDS011;10743;52.160;20.910;2023-06-14T03:24:58;246.90;;;113.30;;
21170;SDS011;10743;52.160;20.910;2023-06-14T03:27:30;264.80;;;119.97;;
21170;SDS011;10743;52.160;20.910;2023-06-14T03:29:57;270.75;;;131.57;;
21170;SDS011;10743;52.160;20.910;2023-06-14T03:32:24;221.25;;;67.72;;
21170;SDS011;10743;52.160;20.910;2023-06-14T03:34:51;314.00;;;166.93;;
21170;SDS011;10743;52.160;20.910;2023-06-14T03:37:22;256.75;;;112.10;;
21170;SDS011;10743;52.160;20.910;2023-06-14T03:39:49;299.27;;;200.20;;
21170;SDS011;10743;52.160;20.910;2023-06-14T03:42:20;294.42;;;164.27;;
21170;SDS011;10743;52.160;20.910;2023-06-14T03:44:48;257.58;;;121.28;;
21170;SDS011;10743;52.160;20.910;2023-06-14T03:47:18;297.00;;;182.57;;
21170;SDS011;10743;52.160;20.910;2023-06-14T03:49:45;286.00;;;166.90;;
21170;SDS011;10743;52.160;20.910;2023-06-14T03:52:12;300.95;;;175.30;;
21170;SDS011;10743;52.160;20.910;2023-06-14T03:54:42;284.60;;;139.70;;
21170;SDS011;10743;52.160;20.910;2023-06-14T03:57:14;267.65;;;146.13;;
21170;SDS011;10743;52.160;20.910;2023-06-14T03:59:42;312.58;;;208.27;;
21170;SDS011;10743;52.160;20.910;2023-06-14T04:02:11;263.48;;;116.13;;
21170;SDS011;10743;52.160;20.910;2023-06-14T04:04:42;257.63;;;115.13;;
21170;SDS011;10743;52.160;20.910;2023-06-14T04:07:15;268.20;;;137.68;;
21170;SDS011;10743;52.160;20.910;2023-06-14T04:09:45;266.73;;;122.28;;
21170;SDS011;10743;52.160;20.910;2023-06-14T04:12:13;307.33;;;190.55;;
21170;SDS011;10743;52.160;20.910;2023-06-14T04:14:40;270.98;;;144.35;;
21170;SDS011;10743;52.160;20.910;2023-06-14T04:17:09;265.27;;;125.68;;
21170;SDS011;10743;52.160;20.910;2023-06-14T04:19:38;226.05;;;72.65;;
21170;SDS011;10743;52.160;20.910;2023-06-14T04:22:05;249.82;;;99.63;;
21170;SDS011;10743;52.160;20.910;2023-06-14T04:24:34;216.95;;;61.35;;
21170;SDS011;10743;52.160;20.910;2023-06-14T04:27:02;231.68;;;79.15;;
21170;SDS011;10743;52.160;20.910;2023-06-14T04:29:30;239.90;;;81.13;;
21170;SDS011;10743;52.160;20.910;2023-06-14T04:32:03;271.23;;;112.35;;
21170;SDS011;10743;52.160;20.910;2023-06-14T04:34:32;239.73;;;79.30;;
21170;SDS011;10743;52.160;20.910;2023-06-14T04:37:01;275.23;;;158.10;;
21170;SDS011;10743;52.160;20.910;2023-06-14T04:39:32;242.32;;;93.00;;
21170;SDS011;10743;52.160;20.910;2023-06-14T04:42:00;275.42;;;117.38;;
21170;SDS011;10743;52.160;20.910;2023-06-14T04:44:30;266.75;;;103.28;;
21170;SDS011;10743;52.160;20.910;2023-06-14T04:47:01;272.08;;;128.30;;
21170;SDS011;10743;52.160;20.910;2023-06-14T04:49:28;233.40;;;78.55;;
21170;SDS011;10743;52.160;20.910;2023-06-14T04:51:57;242.52;;;93.82;;
21170;SDS011;10743;52.160;20.910;2023-06-14T04:54:30;230.77;;;79.15;;
21170;SDS011;10743;52.160;20.910;2023-06-14T04:57:01;275.00;;;126.25;;
21170;SDS011;10743;52.160;20.910;2023-06-14T04:59:30;299.17;;;189.77;;
21170;SDS011;10743;52.160;20.910;2023-06-14T05:02:00;282.13;;;146.05;;
21170;SDS011;10743;52.160;20.910;2023-06-14T05:04:28;265.45;;;118.10;;
21170;SDS011;10743;52.160;20.910;2023-06-14T05:06:57;278.23;;;139.18;;
21170;SDS011;10743;52.160;20.910;2023-06-14T05:09:24;267.45;;;126.65;;
21170;SDS011;10743;52.160;20.910;2023-06-14T05:11:51;267.33;;;123.57;;
21170;SDS011;10743;52.160;20.910;2023-06-14T05:14:19;277.55;;;143.23;;
21170;SDS011;10743;52.160;20.910;2023-06-14T05:16:50;269.23;;;134.98;;
21170;SDS011;10743;52.160;20.910;2023-06-14T05:19:17;245.20;;;95.03;;
21170;SDS011;10743;52.160;20.910;2023-06-14T05:21:44;312.60;;;217.80;;
21170;SDS011;10743;52.160;20.910;2023-06-14T05:24:12;237.88;;;82.03;;
21170;SDS011;10743;52.160;20.910;2023-06-14T05:26:40;261.30;;;105.10;;
21170;SDS011;10743;52.160;20.910;2023-06-14T05:29:07;237.05;;;78.13;;
21170;SDS011;10743;52.160;20.910;2023-06-14T05:31:34;255.70;;;121.72;;
21170;SDS011;10743;52.160;20.910;2023-06-14T05:34:01;246.38;;;86.00;;
21170;SDS011;10743;52.160;20.910;2023-06-14T05:36:29;223.95;;;67.90;;
21170;SDS011;10743;52.160;20.910;2023-06-14T05:38:56;225.50;;;62.50;;
21170;SDS011;10743;52.160;20.910;2023-06-14T05:41:27;228.75;;;64.53;;
21170;SDS011;10743;52.160;20.910;2023-06-14T05:43:55;280.40;;;127.65;;
21170;SDS011;10743;52.160;20.910;2023-06-14T05:46:23;281.67;;;127.80;;
21170;SDS011;10743;52.160;20.910;2023-06-14T05:48:52;320.58;;;175.73;;
21170;SDS011;10743;52.160;20.910;2023-06-14T05:51:20;286.65;;;137.23;;
21170;SDS011;10743;52.160;20.910;2023-06-14T05:53:48;244.07;;;79.38;;
21170;SDS011;10743;52.160;20.910;2023-06-14T05:56:15;241.68;;;67.72;;
21170;SDS011;10743;52.160;20.910;2023-06-14T05:58:46;234.23;;;64.55;;
21170;SDS011;10743;52.160;20.910;2023-06-14T06:01:14;230.30;;;65.35;;
21170;SDS011;10743;52.160;20.910;2023-06-14T06:03:41;243.15;;;100.00;;
21170;SDS011;10743;52.160;20.910;2023-06-14T06:06:12;219.95;;;65.13;;
21170;SDS011;10743;52.160;20.910;2023-06-14T06:08:40;259.83;;;105.43;;
21170;SDS011;10743;52.160;20.910;2023-06-14T06:11:07;268.60;;;99.55;;
21170;SDS011;10743;52.160;20.910;2023-06-14T06:13:35;294.70;;;157.85;;
21170;SDS011;10743;52.160;20.910;2023-06-14T06:16:02;239.63;;;77.22;;
21170;SDS011;10743;52.160;20.910;2023-06-14T06:18:30;238.98;;;77.25;;
21170;SDS011;10743;52.160;20.910;2023-06-14T06:20:57;254.02;;;97.90;;
21170;SDS011;10743;52.160;20.910;2023-06-14T06:23:24;240.30;;;76.25;;
21170;SDS011;10743;52.160;20.910;2023-06-14T06:25:51;251.13;;;87.05;;
21170;SDS011;10743;52.160;20.910;2023-06-14T06:28:18;249.57;;;91.35;;
21170;SDS011;10743;52.160;20.910;2023-06-14T06:30:46;234.02;;;63.67;;
21170;SDS011;10743;52.160;20.910;2023-06-14T06:33:13;278.48;;;148.27;;
21170;SDS011;10743;52.160;20.910;2023-06-14T06:35:40;328.95;;;211.45;;
21170;SDS011;10743;52.160;20.910;2023-06-14T06:38:08;274.65;;;123.43;;
21170;SDS011;10743;52.160;20.910;2023-06-14T06:40:36;249.30;;;89.97;;
21170;SDS011;10743;52.160;20.910;2023-06-14T06:43:04;304.52;;;199.38;;
21170;SDS011;10743;52.160;20.910;2023-06-14T06:45:39;327.27;;;226.70;;
21170;SDS011;10743;52.160;20.910;2023-06-14T06:48:06;280.70;;;145.48;;
21170;SDS011;10743;52.160;20.910;2023-06-14T06:50:36;230.43;;;62.80;;
21170;SDS011;10743;52.160;20.910;2023-06-14T06:53:03;227.82;;;61.78;;
21170;SDS011;10743;52.160;20.910;2023-06-14T06:55:31;234.40;;;62.08;;
21170;SDS011;10743;52.160;20.910;2023-06-14T06:57:58;240.65;;;63.83;;
21170;SDS011;10743;52.160;20.910;2023-06-14T07:00:26;231.10;;;62.88;;
21170;SDS011;10743;52.160;20.910;2023-06-14T07:02:54;232.57;;;63.15;;
21170;SDS011;10743;52.160;20.910;2023-06-14T07:05:21;227.95;;;61.65;;
21170;SDS011;10743;52.160;20.910;2023-06-14T07:07:49;230.85;;;62.63;;
21170;SDS011;10743;52.160;20.910;2023-06-14T07:10:16;226.80;;;62.83;;
21170;SDS011;10743;52.160;20.910;2023-06-14T07:12:43;234.57;;;62.85;;
21170;SDS011;10743;52.160;20.910;2023-06-14T07:15:14;232.75;;;61.70;;
21170;SDS011;10743;52.160;20.910;2023-06-14T07:17:41;228.57;;;62.25;;
21170;SDS011;10743;52.160;20.910;2023-06-14T07:20:09;237.73;;;62.63;;
21170;SDS011;10743;52.160;20.910;2023-06-14T07:22:40;225.88;;;61.78;;
21170;SDS011;10743;52.160;20.910;2023-06-14T07:25:08;224.30;;;61.80;;
21170;SDS011;10743;52.160;20.910;2023-06-14T07:27:41;229.95;;;62.42;;
21170;SDS011;10743;52.160;20.910;2023-06-14T07:30:09;233.85;;;63.60;;
21170;SDS011;10743;52.160;20.910;2023-06-14T07:32:39;234.82;;;63.88;;
21170;SDS011;10743;52.160;20.910;2023-06-14T07:35:09;232.38;;;63.40;;
21170;SDS011;10743;52.160;20.910;2023-06-14T07:37:36;234.38;;;63.45;;
21170;SDS011;10743;52.160;20.910;2023-06-14T07:40:03;235.52;;;63.30;;
21170;SDS011;10743;52.160;20.910;2023-06-14T07:42:36;236.77;;;63.55;;
21170;SDS011;10743;52.160;20.910;2023-06-14T07:45:03;231.35;;;63.28;;
21170;SDS011;10743;52.160;20.910;2023-06-14T07:47:32;236.75;;;64.15;;
21170;SDS011;10743;52.160;20.910;2023-06-14T07:50:01;240.77;;;63.85;;
21170;SDS011;10743;52.160;20.910;2023-06-14T07:52:34;228.48;;;62.42;;
21170;SDS011;10743;52.160;20.910;2023-06-14T07:55:04;204.80;;;67.50;;
21170;SDS011;10743;52.160;20.910;2023-06-14T07:57:32;227.25;;;70.95;;
21170;SDS011;10743;52.160;20.910;2023-06-14T08:00:07;239.43;;;72.78;;
21170;SDS011;10743;52.160;20.910;2023-06-14T08:02:37;236.13;;;68.65;;
21170;SDS011;10743;52.160;20.910;2023-06-14T08:05:05;241.25;;;68.03;;
21170;SDS011;10743;52.160;20.910;2023-06-14T08:07:32;238.63;;;64.22;;
21170;SDS011;10743;52.160;20.910;2023-06-14T08:09:59;256.25;;;80.75;;
21170;SDS011;10743;52.160;20.910;2023-06-14T08:12:27;238.65;;;71.78;;
21170;SDS011;10743;52.160;20.910;2023-06-14T08:14:54;237.45;;;73.43;;
21170;SDS011;10743;52.160;20.910;2023-06-14T08:17:39;240.38;;;67.03;;
21170;SDS011;10743;52.160;20.910;2023-06-14T08:20:06;237.85;;;66.00;;
21170;SDS011;10743;52.160;20.910;2023-06-14T08:22:34;243.23;;;75.78;;
21170;SDS011;10743;52.160;20.910;2023-06-14T08:25:02;236.35;;;73.60;;
21170;SDS011;10743;52.160;20.910;2023-06-14T08:27:30;232.23;;;63.33;;
21170;SDS011;10743;52.160;20.910;2023-06-14T08:29:57;237.10;;;69.80;;
21170;SDS011;10743;52.160;20.910;2023-06-14T08:32:24;234.27;;;63.00;;
21170;SDS011;10743;52.160;20.910;2023-06-14T08:34:51;232.77;;;62.38;;
21170;SDS011;10743;52.160;20.910;2023-06-14T08:37:31;237.68;;;69.78;;
21170;SDS011;10743;52.160;20.910;2023-06-14T08:40:00;233.05;;;67.10;;
21170;SDS011;10743;52.160;20.910;2023-06-14T08:42:29;232.43;;;72.40;;
21170;SDS011;10743;52.160;20.910;2023-06-14T08:44:58;228.50;;;67.32;;
21170;SDS011;10743;52.160;20.910;2023-06-14T08:47:26;240.63;;;65.38;;
21170;SDS011;10743;52.160;20.910;2023-06-14T08:49:55;230.73;;;67.97;;
21170;SDS011;10743;52.160;20.910;2023-06-14T08:52:25;250.70;;;79.88;;
21170;SDS011;10743;52.160;20.910;2023-06-14T08:54:56;238.40;;;78.60;;
21170;SDS011;10743;52.160;20.910;2023-06-14T08:57:26;239.23;;;69.90;;
21170;SDS011;10743;52.160;20.910;2023-06-14T08:59:57;232.93;;;72.85;;
21170;SDS011;10743;52.160;20.910;2023-06-14T09:02:27;240.27;;;72.05;;
21170;SDS011;10743;52.160;20.910;2023-06-14T09:04:55;227.98;;;69.68;;
21170;SDS011;10743;52.160;20.910;2023-06-14T09:07:26;238.73;;;67.90;;
21170;SDS011;10743;52.160;20.910;2023-06-14T09:10:07;243.68;;;71.15;;
21170;SDS011;10743;52.160;20.910;2023-06-14T09:12:39;229.57;;;71.30;;
21170;SDS011;10743;52.160;20.910;2023-06-14T09:15:06;244.32;;;91.95;;
21170;SDS011;10743;52.160;20.910;2023-06-14T09:17:35;243.43;;;79.93;;
21170;SDS011;10743;52.160;20.910;2023-06-14T09:20:03;242.32;;;100.80;;
21170;SDS011;10743;52.160;20.910;2023-06-14T09:22:40;228.63;;;70.60;;
21170;SDS011;10743;52.160;20.910;2023-06-14T09:25:08;246.63;;;86.93;;
21170;SDS011;10743;52.160;20.910;2023-06-14T09:27:47;240.02;;;64.28;;
21170;SDS011;10743;52.160;20.910;2023-06-14T09:30:14;237.93;;;64.03;;
21170;SDS011;10743;52.160;20.910;2023-06-14T09:32:41;245.25;;;65.15;;
21170;SDS011;10743;52.160;20.910;2023-06-14T09:35:08;242.80;;;64.97;;
21170;SDS011;10743;52.160;20.910;2023-06-14T09:37:36;242.13;;;65.47;;
21170;SDS011;10743;52.160;20.910;2023-06-14T09:40:06;242.88;;;67.82;;
21170;SDS011;10743;52.160;20.910;2023-06-14T09:42:33;226.65;;;63.15;;
21170;SDS011;10743;52.160;20.910;2023-06-14T09:45:03;234.73;;;63.83;;
21170;SDS011;10743;52.160;20.910;2023-06-14T09:47:31;231.38;;;65.03;;
21170;SDS011;10743;52.160;20.910;2023-06-14T09:49:58;228.98;;;64.97;;
21170;SDS011;10743;52.160;20.910;2023-06-14T09:52:26;236.80;;;66.85;;
21170;SDS011;10743;52.160;20.910;2023-06-14T09:54:55;232.05;;;65.20;;
21170;SDS011;10743;52.160;20.910;2023-06-14T09:57:23;243.38;;;66.85;;
21170;SDS011;10743;52.160;20.910;2023-06-14T09:59:53;243.65;;;68.47;;
21170;SDS011;10743;52.160;20.910;2023-06-14T10:02:27;245.68;;;66.88;;
21170;SDS011;10743;52.160;20.910;2023-06-14T10:05:03;241.50;;;66.18;;
21170;SDS011;10743;52.160;20.910;2023-06-14T10:07:44;242.50;;;65.78;;
21170;SDS011;10743;52.160;20.910;2023-06-14T10:10:38;240.93;;;66.53;;
21170;SDS011;10743;52.160;20.910;2023-06-14T10:13:08;257.58;;;67.63;;
21170;SDS011;10743;52.160;20.910;2023-06-14T10:19:23;242.40;;;65.63;;
21170;SDS011;10743;52.160;20.910;2023-06-14T10:21:41;247.55;;;70.30;;
21170;SDS011;10743;52.160;20.910;2023-06-14T10:24:24;250.23;;;68.93;;
21170;SDS011;10743;52.160;20.910;2023-06-14T10:27:00;243.10;;;67.70;;
21170;SDS011;10743;52.160;20.910;2023-06-14T10:29:28;240.10;;;66.22;;
21170;SDS011;10743;52.160;20.910;2023-06-14T10:31:59;254.40;;;67.43;;
21170;SDS011;10743;52.160;20.910;2023-06-14T10:34:28;240.40;;;65.45;;
21170;SDS011;10743;52.160;20.910;2023-06-14T10:37:08;244.98;;;66.00;;
21170;SDS011;10743;52.160;20.910;2023-06-14T10:39:39;252.00;;;67.90;;
21170;SDS011;10743;52.160;20.910;2023-06-14T10:42:09;242.70;;;66.78;;
21170;SDS011;10743;52.160;20.910;2023-06-14T10:47:09;238.80;;;66.03;;
21170;SDS011;10743;52.160;20.910;2023-06-14T10:49:50;247.05;;;66.90;;
21170;SDS011;10743;52.160;20.910;2023-06-14T10:52:38;239.30;;;66.40;;
21170;SDS011;10743;52.160;20.910;2023-06-14T10:55:12;254.38;;;70.45;;
21170;SDS011;10743;52.160;20.910;2023-06-14T10:57:47;243.73;;;66.75;;
21170;SDS011;10743;52.160;20.910;2023-06-14T11:00:23;245.80;;;67.88;;
21170;SDS011;10743;52.160;20.910;2023-06-14T11:05:57;238.70;;;65.60;;
21170;SDS011;10743;52.160;20.910;2023-06-14T11:11:21;244.85;;;65.60;;
21170;SDS011;10743;52.160;20.910;2023-06-14T11:13:52;247.18;;;65.93;;
21170;SDS011;10743;52.160;20.910;2023-06-14T11:16:19;243.88;;;66.57;;
21170;SDS011;10743;52.160;20.910;2023-06-14T11:18:46;246.35;;;66.93;;
21170;SDS011;10743;52.160;20.910;2023-06-14T11:21:16;244.93;;;67.80;;
21170;SDS011;10743;52.160;20.910;2023-06-14T11:23:51;240.57;;;66.20;;
21170;SDS011;10743;52.160;20.910;2023-06-14T11:26:29;241.73;;;66.50;;
21170;SDS011;10743;52.160;20.910;2023-06-14T11:28:58;242.85;;;65.88;;
21170;SDS011;10743;52.160;20.910;2023-06-14T11:31:27;247.52;;;67.07;;
21170;SDS011;10743;52.160;20.910;2023-06-14T11:33:56;240.13;;;65.88;;
21170;SDS011;10743;52.160;20.910;2023-06-14T11:36:29;245.65;;;67.05;;
21170;SDS011;10743;52.160;20.910;2023-06-14T11:38:58;249.50;;;73.53;;
21170;SDS011;10743;52.160;20.910;2023-06-14T11:41:37;250.45;;;79.90;;
21170;SDS011;10743;52.160;20.910;2023-06-14T11:44:11;250.75;;;66.82;;
21170;SDS011;10743;52.160;20.910;2023-06-14T11:46:39;240.18;;;65.55;;
21170;SDS011;10743;52.160;20.910;2023-06-14T11:49:07;241.55;;;65.68;;
21170;SDS011;10743;52.160;20.910;2023-06-14T11:51:35;242.95;;;66.50;;
21170;SDS011;10743;52.160;20.910;2023-06-14T11:54:03;241.15;;;65.85;;
21170;SDS011;10743;52.160;20.910;2023-06-14T11:56:32;244.48;;;66.25;;
21170;SDS011;10743;52.160;20.910;2023-06-14T11:59:02;246.57;;;67.10;;
21170;SDS011;10743;52.160;20.910;2023-06-14T12:01:29;245.43;;;66.95;;
21170;SDS011;10743;52.160;20.910;2023-06-14T12:04:00;232.98;;;65.25;;
21170;SDS011;10743;52.160;20.910;2023-06-14T12:06:31;237.23;;;66.28;;
21170;SDS011;10743;52.160;20.910;2023-06-14T12:09:04;252.75;;;67.70;;
21170;SDS011;10743;52.160;20.910;2023-06-14T12:11:39;239.40;;;65.85;;
21170;SDS011;10743;52.160;20.910;2023-06-14T12:14:09;239.75;;;65.45;;
21170;SDS011;10743;52.160;20.910;2023-06-14T12:16:40;248.75;;;66.75;;
21170;SDS011;10743;52.160;20.910;2023-06-14T12:19:16;254.93;;;67.82;;
21170;SDS011;10743;52.160;20.910;2023-06-14T12:21:46;235.07;;;65.25;;
21170;SDS011;10743;52.160;20.910;2023-06-14T12:24:18;238.55;;;66.07;;
21170;SDS011;10743;52.160;20.910;2023-06-14T12:26:48;245.27;;;66.53;;
21170;SDS011;10743;52.160;20.910;2023-06-14T12:29:20;248.48;;;67.45;;
21170;SDS011;10743;52.160;20.910;2023-06-14T12:31:48;242.68;;;66.28;;
21170;SDS011;10743;52.160;20.910;2023-06-14T12:34:15;246.77;;;66.03;;
21170;SDS011;10743;52.160;20.910;2023-06-14T12:36:42;239.90;;;65.00;;
21170;SDS011;10743;52.160;20.910;2023-06-14T12:39:11;236.82;;;64.93;;
21170;SDS011;10743;52.160;20.910;2023-06-14T12:41:39;237.48;;;64.45;;
21170;SDS011;10743;52.160;20.910;2023-06-14T12:44:09;132.55;;;57.33;;
21170;SDS011;10743;52.160;20.910;2023-06-14T12:46:38;241.60;;;65.10;;
21170;SDS011;10743;52.160;20.910;2023-06-14T12:49:07;210.60;;;64.70;;
21170;SDS011;10743;52.160;20.910;2023-06-14T12:51:36;158.75;;;61.08;;
21170;SDS011;10743;52.160;20.910;2023-06-14T12:54:05;162.48;;;61.53;;
21170;SDS011;10743;52.160;20.910;2023-06-14T12:56:32;178.98;;;69.40;;
21170;SDS011;10743;52.160;20.910;2023-06-14T12:59:00;218.15;;;67.22;;
21170;SDS011;10743;52.160;20.910;2023-06-14T13:01:27;181.75;;;71.28;;
21170;SDS011;10743;52.160;20.910;2023-06-14T13:03:54;153.90;;;63.20;;
21170;SDS011;10743;52.160;20.910;2023-06-14T13:06:21;210.15;;;67.70;;
21170;SDS011;10743;52.160;20.910;2023-06-14T13:08:51;134.02;;;58.58;;
21170;SDS011;10743;52.160;20.910;2023-06-14T13:11:21;153.88;;;69.78;;
21170;SDS011;10743;52.160;20.910;2023-06-14T13:13:48;128.23;;;57.33;;
21170;SDS011;10743;52.160;20.910;2023-06-14T13:16:15;120.07;;;56.55;;
21170;SDS011;10743;52.160;20.910;2023-06-14T13:18:42;159.30;;;63.72;;
21170;SDS011;10743;52.160;20.910;2023-06-14T13:21:09;175.40;;;67.38;;
21170;SDS011;10743;52.160;20.910;2023-06-14T13:23:36;165.95;;;101.43;;
21170;SDS011;10743;52.160;20.910;2023-06-14T13:26:03;224.05;;;160.50;;
21170;SDS011;10743;52.160;20.910;2023-06-14T13:28:30;203.40;;;105.85;;
21170;SDS011;10743;52.160;20.910;2023-06-14T13:30:58;194.45;;;123.85;;
21170;SDS011;10743;52.160;20.910;2023-06-14T13:33:26;222.13;;;172.60;;
21170;SDS011;10743;52.160;20.910;2023-06-14T13:35:53;212.02;;;158.52;;
21170;SDS011;10743;52.160;20.910;2023-06-14T13:38:20;167.65;;;131.93;;
21170;SDS011;10743;52.160;20.910;2023-06-14T13:40:47;229.75;;;132.85;;
21170;SDS011;10743;52.160;20.910;2023-06-14T13:43:14;189.18;;;72.28;;
21170;SDS011;10743;52.160;20.910;2023-06-14T13:45:41;242.68;;;67.88;;
21170;SDS011;10743;52.160;20.910;2023-06-14T13:48:08;239.63;;;67.90;;
21170;SDS011;10743;52.160;20.910;2023-06-14T13:50:35;234.63;;;66.80;;
21170;SDS011;10743;52.160;20.910;2023-06-14T13:53:03;226.43;;;65.70;;
21170;SDS011;10743;52.160;20.910;2023-06-14T13:55:30;228.63;;;64.50;;
21170;SDS011;10743;52.160;20.910;2023-06-14T13:57:57;154.27;;;61.63;;
21170;SDS011;10743;52.160;20.910;2023-06-14T14:00:24;188.48;;;89.07;;
21170;SDS011;10743;52.160;20.910;2023-06-14T14:02:51;187.30;;;78.20;;
21170;SDS011;10743;52.160;20.910;2023-06-14T14:05:18;161.50;;;61.92;;
21170;SDS011;10743;52.160;20.910;2023-06-14T14:07:47;197.55;;;70.10;;
21170;SDS011;10743;52.160;20.910;2023-06-14T14:10:14;224.68;;;70.38;;
21170;SDS011;10743;52.160;20.910;2023-06-14T14:12:41;152.18;;;60.78;;
21170;SDS011;10743;52.160;20.910;2023-06-14T14:15:08;126.72;;;56.40;;
21170;SDS011;10743;52.160;20.910;2023-06-14T14:17:39;213.82;;;71.43;;
21170;SDS011;10743;52.160;20.910;2023-06-14T14:20:08;220.25;;;65.68;;